createdAt,value
2023-01-23T00:00:34.754Z,3.3
2023-01-23T00:01:38.411Z,3.3
2023-01-23T00:02:42.518Z,3.3
2023-01-23T00:03:45.563Z,3.3
2023-01-23T00:04:49.696Z,3.3
2023-01-23T00:05:53.093Z,3.3
2023-01-23T00:06:55.916Z,3.3
2023-01-23T00:07:58.774Z,3.3
2023-01-23T00:09:02.314Z,3.3
2023-01-23T00:10:06.034Z,3.2
2023-01-23T00:11:09.658Z,3.2
2023-01-23T00:12:13.039Z,3.2
2023-01-23T00:13:16.921Z,3.2
2023-01-23T00:14:20.879Z,3.2
2023-01-23T00:15:24.800Z,3.2
2023-01-23T00:16:28.338Z,3.2
2023-01-23T00:17:32.049Z,3.2
2023-01-23T00:18:34.961Z,3.2
2023-01-23T00:19:37.713Z,3.2
2023-01-23T00:20:40.500Z,3.2
2023-01-23T00:21:43.802Z,3.2
2023-01-23T00:22:46.601Z,3.2
2023-01-23T00:23:49.606Z,3.2
2023-01-23T00:24:53.032Z,3.2
2023-01-23T00:25:55.516Z,3.1
2023-01-23T00:26:57.991Z,3.1
2023-01-23T00:28:01.246Z,3.1
2023-01-23T00:29:05.291Z,3.1
2023-01-23T00:30:08.013Z,3.1
2023-01-23T00:31:12.613Z,3.1
2023-01-23T00:32:16.437Z,3.1
2023-01-23T00:33:19.801Z,3.1
2023-01-23T00:34:22.573Z,3.1
2023-01-23T00:35:25.554Z,3.1
2023-01-23T00:36:28.633Z,3.1
2023-01-23T00:37:31.359Z,3.1
2023-01-23T00:38:34.860Z,3.1
2023-01-23T00:39:38.158Z,3
2023-01-23T00:40:41.909Z,3
2023-01-23T00:41:45.288Z,3
2023-01-23T00:42:48.700Z,3
2023-01-23T00:43:52.200Z,3
2023-01-23T00:44:56.058Z,3
2023-01-23T00:45:59.182Z,3
2023-01-23T00:47:02.845Z,3
2023-01-23T00:48:07.098Z,3
2023-01-23T00:49:09.379Z,3
2023-01-23T00:50:12.769Z,3
2023-01-23T00:51:16.493Z,3
2023-01-23T00:52:20.140Z,3
2023-01-23T00:53:23.212Z,3
2023-01-23T00:54:26.872Z,3
2023-01-23T00:55:29.588Z,3
2023-01-23T00:56:32.464Z,3
2023-01-23T00:57:35.749Z,3
2023-01-23T00:58:37.922Z,3
2023-01-23T00:59:41.333Z,3
2023-01-23T01:00:44.427Z,3
2023-01-23T01:01:48.618Z,3
2023-01-23T01:02:52.453Z,3
2023-01-23T01:03:56.208Z,3
2023-01-23T01:04:59.885Z,3
2023-01-23T01:06:03.135Z,3
2023-01-23T01:07:06.163Z,3
2023-01-23T01:08:09.614Z,3
2023-01-23T01:09:12.974Z,3
2023-01-23T01:10:15.443Z,3
2023-01-23T01:11:18.226Z,3
2023-01-23T01:12:20.815Z,3.1
2023-01-23T01:13:24.910Z,3.1
2023-01-23T01:14:27.900Z,3
2023-01-23T01:15:31.131Z,3.1
2023-01-23T01:16:35.233Z,3
2023-01-23T01:17:39.292Z,3
2023-01-23T01:18:42.618Z,3
2023-01-23T01:19:45.912Z,2.9
2023-01-23T01:20:48.587Z,3
2023-01-23T01:21:51.649Z,3
2023-01-23T01:22:54.458Z,3
2023-01-23T01:23:57.297Z,3
2023-01-23T01:25:00.610Z,3
2023-01-23T01:26:03.649Z,3
2023-01-23T01:27:06.457Z,3
2023-01-23T01:28:09.245Z,3
2023-01-23T01:29:12.799Z,3
2023-01-23T01:30:17.044Z,3
2023-01-23T01:31:22.037Z,3
2023-01-23T01:32:26.430Z,3
2023-01-23T01:33:29.727Z,3
2023-01-23T01:34:33.081Z,3
2023-01-23T01:35:36.720Z,3
2023-01-23T01:36:39.817Z,3
2023-01-23T01:37:42.948Z,3
2023-01-23T01:38:45.977Z,3
2023-01-23T01:39:49.050Z,3
2023-01-23T01:40:52.506Z,3.1
2023-01-23T01:41:55.654Z,3.1
2023-01-23T01:42:58.710Z,3.1
2023-01-23T01:44:02.031Z,3.1
2023-01-23T01:45:05.032Z,3.1
2023-01-23T01:46:07.808Z,3.1
2023-01-23T01:47:11.332Z,3.1
2023-01-23T01:48:15.343Z,3.1
2023-01-23T01:49:18.459Z,3.1
2023-01-23T01:50:22.591Z,3
2023-01-23T01:51:26.349Z,3
2023-01-23T01:52:28.901Z,3
2023-01-23T01:53:32.052Z,3
2023-01-23T01:54:35.377Z,3
2023-01-23T01:55:38.201Z,3
2023-01-23T01:56:40.630Z,3
2023-01-23T01:57:43.621Z,2.9
2023-01-23T01:58:46.393Z,3
2023-01-23T01:59:49.384Z,3
2023-01-23T02:00:53.412Z,3
2023-01-23T02:01:56.721Z,3
2023-01-23T02:02:59.701Z,3
2023-01-23T02:04:03.659Z,3
2023-01-23T02:05:07.542Z,3
2023-01-23T02:06:11.142Z,2.9
2023-01-23T02:07:14.690Z,2.9
2023-01-23T02:08:17.506Z,2.9
2023-01-23T02:09:20.222Z,2.9
2023-01-23T02:10:23.768Z,2.9
2023-01-23T02:11:27.157Z,2.9
2023-01-23T02:12:30.000Z,2.9
2023-01-23T02:13:33.068Z,2.9
2023-01-23T02:14:36.799Z,2.9
2023-01-23T02:15:39.974Z,2.9
2023-01-23T02:16:43.917Z,2.9
2023-01-23T02:17:46.112Z,2.9
2023-01-23T02:18:49.625Z,2.9
2023-01-23T02:19:53.249Z,2.9
2023-01-23T02:20:56.197Z,3
2023-01-23T02:21:59.637Z,3
2023-01-23T02:23:02.873Z,3
2023-01-23T02:24:06.628Z,3
2023-01-23T02:25:09.729Z,3
2023-01-23T02:26:12.460Z,3
2023-01-23T02:27:15.182Z,3
2023-01-23T02:28:17.679Z,3
2023-01-23T02:29:20.954Z,3
2023-01-23T02:30:24.304Z,2.9
2023-01-23T02:31:28.522Z,2.9
2023-01-23T02:32:31.490Z,2.9
2023-01-23T02:33:34.306Z,2.9
2023-01-23T02:34:37.630Z,2.9
2023-01-23T02:35:41.391Z,2.9
2023-01-23T02:36:45.149Z,2.9
2023-01-23T02:37:48.835Z,2.9
2023-01-23T02:38:52.575Z,2.9
2023-01-23T02:39:55.833Z,2.9
2023-01-23T02:40:59.543Z,2.9
2023-01-23T02:42:02.707Z,2.9
2023-01-23T02:43:05.142Z,2.9
2023-01-23T02:44:08.141Z,2.9
2023-01-23T02:45:11.528Z,2.9
2023-01-23T02:46:14.697Z,2.9
2023-01-23T02:47:18.097Z,2.9
2023-01-23T02:48:21.449Z,2.9
2023-01-23T02:49:24.619Z,2.9
2023-01-23T02:50:27.923Z,2.9
2023-01-23T02:51:31.680Z,2.9
2023-01-23T02:52:34.880Z,2.9
2023-01-23T02:53:38.321Z,3
2023-01-23T02:54:41.586Z,3
2023-01-23T02:55:44.106Z,3
2023-01-23T02:56:47.751Z,3
2023-01-23T02:57:50.571Z,3
2023-01-23T02:58:53.300Z,3
2023-01-23T02:59:56.036Z,3
2023-01-23T03:00:59.272Z,3
2023-01-23T03:02:02.660Z,3
2023-01-23T03:03:05.846Z,3
2023-01-23T03:04:09.488Z,3
2023-01-23T03:05:13.113Z,3
2023-01-23T03:06:16.571Z,3
2023-01-23T03:07:20.544Z,3
2023-01-23T03:08:23.787Z,3
2023-01-23T03:09:27.109Z,3
2023-01-23T03:10:30.701Z,3
2023-01-23T03:11:33.787Z,3
2023-01-23T03:12:36.897Z,3.1
2023-01-23T03:13:39.711Z,3.1
2023-01-23T03:14:43.073Z,3
2023-01-23T03:15:46.072Z,3
2023-01-23T03:16:48.955Z,3
2023-01-23T03:17:51.192Z,3
2023-01-23T03:18:56.850Z,3
2023-01-23T03:20:00.294Z,3
2023-01-23T03:21:03.729Z,3
2023-01-23T03:22:07.647Z,3
2023-01-23T03:23:11.397Z,3
2023-01-23T03:24:15.167Z,3
2023-01-23T03:25:19.155Z,3
2023-01-23T03:26:22.388Z,3
2023-01-23T03:27:26.121Z,3
2023-01-23T03:28:28.560Z,3
2023-01-23T03:29:31.909Z,3
2023-01-23T03:30:35.494Z,3
2023-01-23T03:31:38.335Z,3
2023-01-23T03:32:41.206Z,3
2023-01-23T03:33:43.643Z,3
2023-01-23T03:34:46.081Z,3
2023-01-23T03:35:49.199Z,3
2023-01-23T03:36:52.193Z,3
2023-01-23T03:37:55.466Z,3
2023-01-23T03:38:59.349Z,3
2023-01-23T03:40:02.551Z,3
2023-01-23T03:41:05.936Z,3
2023-01-23T03:42:09.229Z,3
2023-01-23T03:43:11.765Z,3
2023-01-23T03:44:14.849Z,3
2023-01-23T03:45:18.227Z,3
2023-01-23T03:46:21.564Z,3
2023-01-23T03:47:25.296Z,3
2023-01-23T03:48:28.477Z,3
2023-01-23T03:49:31.743Z,3
2023-01-23T03:50:34.882Z,3
2023-01-23T03:51:37.871Z,3
2023-01-23T03:52:41.347Z,3
2023-01-23T03:53:44.216Z,3
2023-01-23T03:54:47.262Z,3
2023-01-23T03:55:50.811Z,3
2023-01-23T03:56:54.773Z,3
2023-01-23T03:57:58.489Z,3
2023-01-23T03:59:01.475Z,3
2023-01-23T04:00:04.607Z,3
2023-01-23T04:01:07.604Z,3
2023-01-23T04:02:10.742Z,3
2023-01-23T04:03:13.736Z,3
2023-01-23T04:04:16.848Z,3
2023-01-23T04:05:19.684Z,3
2023-01-23T04:06:23.422Z,3
2023-01-23T04:07:26.701Z,3
2023-01-23T04:08:29.981Z,3
2023-01-23T04:09:33.516Z,3
2023-01-23T04:10:37.491Z,3
2023-01-23T04:11:41.181Z,3
2023-01-23T04:12:44.438Z,3
2023-01-23T04:13:48.138Z,3
2023-01-23T04:14:51.317Z,3
2023-01-23T04:15:54.412Z,3
2023-01-23T04:16:57.159Z,3
2023-01-23T04:17:59.894Z,3
2023-01-23T04:19:03.025Z,3
2023-01-23T04:20:06.154Z,3
2023-01-23T04:21:09.487Z,3
2023-01-23T04:22:13.499Z,3
2023-01-23T04:23:16.549Z,3
2023-01-23T04:24:19.731Z,3
2023-01-23T04:25:22.729Z,3
2023-01-23T04:26:26.389Z,3
2023-01-23T04:27:29.971Z,2.9
2023-01-23T04:28:33.585Z,3
2023-01-23T04:29:36.818Z,2.9
2023-01-23T04:30:40.420Z,3
2023-01-23T04:31:44.216Z,3
2023-01-23T04:32:46.815Z,3
2023-01-23T04:33:49.883Z,2.9
2023-01-23T04:34:53.105Z,2.9
2023-01-23T04:35:56.524Z,2.9
2023-01-23T04:36:59.813Z,3
2023-01-23T04:38:02.632Z,3
2023-01-23T04:39:05.529Z,3
2023-01-23T04:40:08.308Z,3
2023-01-23T04:41:11.501Z,3.1
2023-01-23T04:42:15.776Z,3.1
2023-01-23T04:43:18.963Z,3.1
2023-01-23T04:44:22.478Z,3.1
2023-01-23T04:45:26.046Z,3.1
2023-01-23T04:46:29.512Z,3.1
2023-01-23T04:47:32.996Z,3.1
2023-01-23T04:48:35.728Z,3.1
2023-01-23T04:49:38.783Z,3.1
2023-01-23T04:50:40.658Z,3.1
2023-01-23T04:51:44.092Z,3.1
2023-01-23T04:52:47.551Z,3.1
2023-01-23T04:53:50.660Z,3.1
2023-01-23T04:54:53.675Z,3.1
2023-01-23T04:55:56.477Z,3.1
2023-01-23T04:57:00.013Z,3.1
2023-01-23T04:58:03.877Z,3.1
2023-01-23T04:59:07.115Z,3.1
2023-01-23T05:00:10.437Z,3.1
2023-01-23T05:01:14.222Z,3.1
2023-01-23T05:02:17.252Z,3.1
2023-01-23T05:03:20.703Z,3
2023-01-23T05:04:23.725Z,3
2023-01-23T05:05:26.720Z,3
2023-01-23T05:06:29.715Z,3
2023-01-23T05:07:33.435Z,3
2023-01-23T05:08:37.439Z,3
2023-01-23T05:09:39.862Z,3
2023-01-23T05:10:42.128Z,3
2023-01-23T05:11:45.200Z,3
2023-01-23T05:12:48.573Z,2.9
2023-01-23T05:13:52.164Z,2.9
2023-01-23T05:14:55.609Z,2.9
2023-01-23T05:15:59.504Z,2.9
2023-01-23T05:17:02.879Z,3
2023-01-23T05:18:06.253Z,3
2023-01-23T05:19:09.414Z,3
2023-01-23T05:20:12.679Z,3
2023-01-23T05:21:16.020Z,3
2023-01-23T05:22:18.456Z,3
2023-01-23T05:23:21.811Z,3
2023-01-23T05:24:25.555Z,2.9
2023-01-23T05:25:29.210Z,2.9
2023-01-23T05:26:32.392Z,2.9
2023-01-23T05:27:35.850Z,2.9
2023-01-23T05:28:39.246Z,2.9
2023-01-23T05:29:42.979Z,2.9
2023-01-23T05:30:47.024Z,3
2023-01-23T05:31:51.137Z,2.9
2023-01-23T05:32:55.140Z,3
2023-01-23T05:33:57.866Z,3
2023-01-23T05:35:00.867Z,3
2023-01-23T05:36:03.939Z,2.9
2023-01-23T05:37:06.464Z,2.9
2023-01-23T05:38:09.182Z,2.9
2023-01-23T05:39:12.520Z,2.9
2023-01-23T05:40:16.231Z,2.8
2023-01-23T05:41:19.342Z,2.9
2023-01-23T05:42:22.981Z,2.8
2023-01-23T05:43:26.038Z,2.8
2023-01-23T05:44:28.910Z,2.8
2023-01-23T05:45:32.886Z,2.8
2023-01-23T05:46:36.409Z,2.8
2023-01-23T05:47:40.005Z,2.8
2023-01-23T05:48:43.217Z,2.8
2023-01-23T05:49:46.648Z,2.8
2023-01-23T05:50:50.138Z,2.8
2023-01-23T05:51:53.848Z,2.8
2023-01-23T05:52:56.941Z,2.8
2023-01-23T05:53:59.641Z,2.8
2023-01-23T05:55:03.125Z,2.8
2023-01-23T05:56:06.364Z,2.8
2023-01-23T05:57:09.439Z,2.8
2023-01-23T05:58:16.627Z,2.8
2023-01-23T05:59:19.211Z,2.9
2023-01-23T06:00:23.651Z,2.9
2023-01-23T06:01:27.930Z,2.9
2023-01-23T06:02:30.988Z,2.9
2023-01-23T06:03:35.237Z,2.9
2023-01-23T06:04:38.965Z,2.9
2023-01-23T06:05:42.351Z,2.9
2023-01-23T06:06:45.505Z,2.9
2023-01-23T06:07:48.561Z,2.9
2023-01-23T06:08:51.433Z,2.9
2023-01-23T06:09:54.316Z,2.9
2023-01-23T06:10:57.408Z,2.9
2023-01-23T06:12:00.476Z,2.8
2023-01-23T06:13:03.610Z,2.8
2023-01-23T06:14:06.329Z,2.9
2023-01-23T06:15:09.714Z,2.9
2023-01-23T06:16:13.274Z,2.9
2023-01-23T06:17:17.226Z,2.9
2023-01-23T06:18:20.480Z,2.9
2023-01-23T06:19:24.373Z,2.9
2023-01-23T06:20:27.985Z,2.9
2023-01-23T06:21:31.096Z,2.9
2023-01-23T06:22:34.744Z,2.9
2023-01-23T06:23:37.565Z,3
2023-01-23T06:24:41.313Z,3
2023-01-23T06:25:44.143Z,3
2023-01-23T06:26:47.207Z,3
2023-01-23T06:27:49.715Z,3
2023-01-23T06:28:53.081Z,3
2023-01-23T06:29:56.172Z,3
2023-01-23T06:31:00.057Z,3
2023-01-23T06:32:03.158Z,3
2023-01-23T06:33:07.012Z,3
2023-01-23T06:34:10.264Z,3
2023-01-23T06:35:14.247Z,2.9
2023-01-23T06:36:17.549Z,2.9
2023-01-23T06:37:20.713Z,2.9
2023-01-23T06:38:23.706Z,2.9
2023-01-23T06:39:25.879Z,2.9
2023-01-23T06:40:29.622Z,2.9
2023-01-23T06:41:32.333Z,3
2023-01-23T06:42:35.666Z,3
2023-01-23T06:43:39.015Z,3
2023-01-23T06:44:42.151Z,3
2023-01-23T06:45:44.653Z,3
2023-01-23T06:46:47.777Z,3
2023-01-23T06:47:50.879Z,3
2023-01-23T06:48:54.871Z,3
2023-01-23T06:49:59.003Z,3
2023-01-23T06:51:03.719Z,3
2023-01-23T06:52:07.088Z,3
2023-01-23T06:53:09.989Z,3
2023-01-23T06:54:13.088Z,3.1
2023-01-23T06:55:16.692Z,3.1
2023-01-23T06:56:20.436Z,3.1
2023-01-23T06:57:23.822Z,3.1
2023-01-23T06:58:27.028Z,3.1
2023-01-23T06:59:30.097Z,3.1
2023-01-23T07:00:32.910Z,3.1
2023-01-23T07:01:35.604Z,3.1
2023-01-23T07:02:39.382Z,3.1
2023-01-23T07:03:42.949Z,3.1
2023-01-23T07:04:47.119Z,3.1
2023-01-23T07:05:50.482Z,3.1
2023-01-23T07:06:53.888Z,3.1
2023-01-23T07:07:57.187Z,3.1
2023-01-23T07:09:00.571Z,3.1
2023-01-23T07:10:04.315Z,3.1
2023-01-23T07:11:07.443Z,3.1
2023-01-23T07:12:10.521Z,3.1
2023-01-23T07:13:13.989Z,3.1
2023-01-23T07:14:17.085Z,3.1
2023-01-23T07:15:20.372Z,3.1
2023-01-23T07:16:24.064Z,3.1
2023-01-23T07:17:26.889Z,3.1
2023-01-23T07:18:30.083Z,3.1
2023-01-23T07:19:33.181Z,3.1
2023-01-23T07:20:36.544Z,3.1
2023-01-23T07:21:40.434Z,3.2
2023-01-23T07:22:43.763Z,3.2
2023-01-23T07:23:47.515Z,3.2
2023-01-23T07:24:51.296Z,3.2
2023-01-23T07:25:53.937Z,3.2
2023-01-23T07:26:57.242Z,3.2
2023-01-23T07:28:00.355Z,3.2
2023-01-23T07:29:03.366Z,3.3
2023-01-23T07:30:06.719Z,3.3
2023-01-23T07:31:10.957Z,3.3
2023-01-23T07:32:14.062Z,3.3
2023-01-23T07:33:16.967Z,3.3
2023-01-23T07:34:19.400Z,3.3
2023-01-23T07:35:22.517Z,3.3
2023-01-23T07:36:26.377Z,3.3
2023-01-23T07:37:29.757Z,3.3
2023-01-23T07:38:33.707Z,3.3
2023-01-23T07:39:37.306Z,3.3
2023-01-23T07:40:40.807Z,3.3
2023-01-23T07:41:47.922Z,3.3
2023-01-23T07:42:51.053Z,3.3
2023-01-23T07:43:53.869Z,3.3
2023-01-23T07:44:56.861Z,3.3
2023-01-23T07:45:59.742Z,3.3
2023-01-23T07:47:02.866Z,3.3
2023-01-23T07:48:06.259Z,3.3
2023-01-23T07:49:09.511Z,3.3
2023-01-23T07:50:13.175Z,3.3
2023-01-23T07:51:16.755Z,3.3
2023-01-23T07:52:21.078Z,3.3
2023-01-23T07:53:23.923Z,3.3
2023-01-23T07:54:27.825Z,3.2
2023-01-23T07:55:31.441Z,3.2
2023-01-23T07:56:34.856Z,3.3
2023-01-23T07:57:38.870Z,3.2
2023-01-23T07:58:42.077Z,3.2
2023-01-23T07:59:45.468Z,3.3
2023-01-23T08:00:48.702Z,3.3
2023-01-23T08:01:52.398Z,3.3
2023-01-23T08:02:56.074Z,3.3
2023-01-23T08:03:59.522Z,3.3
2023-01-23T08:05:03.317Z,3.3
2023-01-23T08:06:06.225Z,3.3
2023-01-23T08:07:09.176Z,3.3
2023-01-23T08:08:15.913Z,3.2
2023-01-23T08:09:19.467Z,3.2
2023-01-23T08:10:24.192Z,3.2
2023-01-23T08:11:28.191Z,3.2
2023-01-23T08:12:31.255Z,3.2
2023-01-23T08:13:34.398Z,3.2
2023-01-23T08:14:37.427Z,3.2
2023-01-23T08:15:40.633Z,3.2
2023-01-23T08:16:43.517Z,3.2
2023-01-23T08:17:47.321Z,3.2
2023-01-23T08:18:50.044Z,3.2
2023-01-23T08:19:53.479Z,3.2
2023-01-23T08:20:56.339Z,3.2
2023-01-23T08:21:59.328Z,3.2
2023-01-23T08:23:02.873Z,3.2
2023-01-23T08:24:06.741Z,3.2
2023-01-23T08:25:09.951Z,3.2
2023-01-23T08:26:13.584Z,3.2
2023-01-23T08:27:17.163Z,3.2
2023-01-23T08:28:20.257Z,3.2
2023-01-23T08:29:23.974Z,3.2
2023-01-23T08:30:27.899Z,3.2
2023-01-23T08:31:32.246Z,3.2
2023-01-23T08:32:35.429Z,3.2
2023-01-23T08:33:38.171Z,3.3
2023-01-23T08:34:42.155Z,3.2
2023-01-23T08:35:45.571Z,3.2
2023-01-23T08:36:49.320Z,3.2
2023-01-23T08:37:52.082Z,3.2
2023-01-23T08:38:55.279Z,3.2
2023-01-23T08:39:58.686Z,3.2
2023-01-23T08:41:02.152Z,3.2
2023-01-23T08:42:06.653Z,3.2
2023-01-23T08:43:10.603Z,3.3
2023-01-23T08:44:13.617Z,3.3
2023-01-23T08:45:16.970Z,3.3
2023-01-23T08:46:20.129Z,3.3
2023-01-23T08:47:23.125Z,3.3
2023-01-23T08:48:26.931Z,3.3
2023-01-23T08:49:29.965Z,3.3
2023-01-23T08:50:33.658Z,3.3
2023-01-23T08:51:36.729Z,3.2
2023-01-23T08:52:40.707Z,3.2
2023-01-23T08:53:43.843Z,3.2
2023-01-23T08:54:46.974Z,3.2
2023-01-23T08:55:50.866Z,3.2
2023-01-23T08:56:54.347Z,3.2
2023-01-23T08:57:58.053Z,3.2
2023-01-23T08:59:01.929Z,3.2
2023-01-23T09:00:05.022Z,3.2
2023-01-23T09:01:09.120Z,3.2
2023-01-23T09:02:13.096Z,3.3
2023-01-23T09:03:16.195Z,3.3
2023-01-23T09:04:19.936Z,3.3
2023-01-23T09:05:22.921Z,3.3
2023-01-23T09:06:26.265Z,3.3
2023-01-23T09:07:29.954Z,3.4
2023-01-23T09:08:36.107Z,3.4
2023-01-23T09:09:39.429Z,3.4
2023-01-23T09:10:42.662Z,3.4
2023-01-23T09:11:45.944Z,3.5
2023-01-23T09:12:49.609Z,3.4
2023-01-23T09:13:55.512Z,3.4
2023-01-23T09:14:58.759Z,3.4
2023-01-23T09:16:01.878Z,3.4
2023-01-23T09:17:05.543Z,3.5
2023-01-23T09:18:08.666Z,3.4
2023-01-23T09:19:11.695Z,3.4
2023-01-23T09:20:15.506Z,3.4
2023-01-23T09:21:19.203Z,3.4
2023-01-23T09:22:22.830Z,3.4
2023-01-23T09:23:25.936Z,3.4
2023-01-23T09:24:29.312Z,3.4
2023-01-23T09:25:33.397Z,3.4
2023-01-23T09:26:36.339Z,3.4
2023-01-23T09:27:39.975Z,3.3
2023-01-23T09:28:43.884Z,3.4
2023-01-23T09:29:47.756Z,3.4
2023-01-23T09:30:51.409Z,3.4
2023-01-23T09:31:54.631Z,3.4
2023-01-23T09:32:57.712Z,3.4
2023-01-23T09:34:00.150Z,3.4
2023-01-23T09:35:03.526Z,3.4
2023-01-23T09:36:06.976Z,3.4
2023-01-23T09:37:10.063Z,3.4
2023-01-23T09:38:13.550Z,3.4
2023-01-23T09:39:17.221Z,3.4
2023-01-23T09:40:23.107Z,3.5
2023-01-23T09:41:26.436Z,3.5
2023-01-23T09:42:29.730Z,3.5
2023-01-23T09:43:33.468Z,3.5
2023-01-23T09:44:37.395Z,3.5
2023-01-23T09:45:41.532Z,3.5
2023-01-23T09:46:44.784Z,3.5
2023-01-23T09:47:48.500Z,3.5
2023-01-23T09:48:51.964Z,3.5
2023-01-23T09:49:54.790Z,3.5
2023-01-23T09:50:58.792Z,3.5
2023-01-23T09:52:01.604Z,3.5
2023-01-23T09:53:04.975Z,3.5
2023-01-23T09:54:08.342Z,3.5
2023-01-23T09:55:11.590Z,3.5
2023-01-23T09:56:14.950Z,3.5
2023-01-23T09:57:18.194Z,3.5
2023-01-23T09:58:21.590Z,3.5
2023-01-23T09:59:25.087Z,3.5
2023-01-23T10:00:28.959Z,3.5
2023-01-23T10:01:32.793Z,3.5
2023-01-23T10:02:36.412Z,3.5
2023-01-23T10:03:40.112Z,3.5
2023-01-23T10:04:43.298Z,3.5
2023-01-23T10:05:47.010Z,3.5
2023-01-23T10:06:50.341Z,3.5
2023-01-23T10:07:53.730Z,3.5
2023-01-23T10:08:57.098Z,3.5
2023-01-23T10:10:02.587Z,3.5
2023-01-23T10:11:06.855Z,3.5
2023-01-23T10:12:10.230Z,3.5
2023-01-23T10:13:17.537Z,3.5
2023-01-23T10:14:21.012Z,3.5
2023-01-23T10:15:25.025Z,3.5
2023-01-23T10:16:52.150Z,3.5
2023-01-23T10:17:57.905Z,3.5
2023-01-23T10:19:02.486Z,3.5
2023-01-23T10:20:06.138Z,3.5
2023-01-23T10:21:09.893Z,3.5
2023-01-23T10:22:24.761Z,3.5
2023-01-23T10:23:27.841Z,3.6
2023-01-23T10:24:41.277Z,3.6
2023-01-23T10:25:43.949Z,3.6
2023-01-23T10:26:47.715Z,3.5
2023-01-23T10:27:51.067Z,3.5
2023-01-23T10:28:55.132Z,3.6
2023-01-23T10:29:59.009Z,3.6
2023-01-23T10:31:03.815Z,3.6
2023-01-23T10:32:06.481Z,3.6
2023-01-23T10:33:10.235Z,3.5
2023-01-23T10:34:13.964Z,3.4
2023-01-23T10:35:16.979Z,3.5
2023-01-23T10:36:30.427Z,3.5
2023-01-23T10:37:57.910Z,3.5
2023-01-23T10:39:00.993Z,3.5
2023-01-23T10:40:04.446Z,3.5
2023-01-23T10:41:06.602Z,3.5
2023-01-23T10:42:09.877Z,3.6
2023-01-23T10:43:13.320Z,3.6
2023-01-23T10:44:16.691Z,3.6
2023-01-23T10:45:22.554Z,3.6
2023-01-23T10:46:26.719Z,3.6
2023-01-23T10:47:42.783Z,3.6
2023-01-23T10:48:48.642Z,3.6
2023-01-23T10:49:51.815Z,3.6
2023-01-23T10:50:55.822Z,3.6
2023-01-23T10:51:58.610Z,3.6
2023-01-23T10:53:02.083Z,3.6
2023-01-23T10:54:14.913Z,3.6
2023-01-23T10:55:36.047Z,3.6
2023-01-23T10:56:38.996Z,3.6
2023-01-23T10:57:45.175Z,3.6
2023-01-23T10:58:48.532Z,3.6
2023-01-23T10:59:51.899Z,3.6
2023-01-23T11:00:55.727Z,3.7
2023-01-23T11:02:00.343Z,3.7
2023-01-23T11:03:04.675Z,3.7
2023-01-23T11:04:08.920Z,3.7
2023-01-23T11:05:12.252Z,3.7
2023-01-23T11:06:16.254Z,3.7
2023-01-23T11:07:19.131Z,3.7
2023-01-23T11:08:21.563Z,3.7
2023-01-23T11:09:24.649Z,3.7
2023-01-23T11:10:27.982Z,3.7
2023-01-23T11:11:30.423Z,3.7
2023-01-23T11:12:33.904Z,3.7
2023-01-23T11:13:37.286Z,3.7
2023-01-23T11:14:41.325Z,3.7
2023-01-23T11:15:44.872Z,3.7
2023-01-23T11:16:49.075Z,3.7
2023-01-23T11:17:53.041Z,3.7
2023-01-23T11:18:55.888Z,3.8
2023-01-23T11:19:59.628Z,3.8
2023-01-23T11:21:03.459Z,3.8
2023-01-23T11:22:06.838Z,3.8
2023-01-23T11:23:09.579Z,3.8
2023-01-23T11:24:12.782Z,3.8
2023-01-23T11:25:16.419Z,3.8
2023-01-23T11:26:19.493Z,3.9
2023-01-23T11:27:22.536Z,3.9
2023-01-23T11:28:25.937Z,3.9
2023-01-23T11:29:28.634Z,3.8
2023-01-23T11:30:32.270Z,3.8
2023-01-23T11:31:36.643Z,3.8
2023-01-23T11:32:40.783Z,3.8
2023-01-23T11:33:44.640Z,3.8
2023-01-23T11:34:48.881Z,3.8
2023-01-23T11:35:53.345Z,3.8
2023-01-23T11:36:56.713Z,3.8
2023-01-23T11:38:00.139Z,3.8
2023-01-23T11:39:03.637Z,3.8
2023-01-23T11:40:07.452Z,3.8
2023-01-23T11:41:10.568Z,3.9
2023-01-23T11:42:13.723Z,3.9
2023-01-23T11:43:16.762Z,3.8
2023-01-23T11:44:25.499Z,3.8
2023-01-23T11:45:48.942Z,3.8
2023-01-23T11:46:51.962Z,3.8
2023-01-23T11:47:55.538Z,3.8
2023-01-23T11:48:59.453Z,3.8
2023-01-23T11:50:03.158Z,3.8
2023-01-23T11:51:07.218Z,3.8
2023-01-23T11:52:10.408Z,3.7
2023-01-23T11:53:14.351Z,3.7
2023-01-23T11:54:18.455Z,3.7
2023-01-23T11:55:23.794Z,3.7
2023-01-23T11:56:27.077Z,4.3
2023-01-23T11:57:30.425Z,4.2
2023-01-23T11:58:50.865Z,4.1
2023-01-23T11:59:54.162Z,4.1
2023-01-23T12:00:56.947Z,4
2023-01-23T12:02:05.303Z,3.9
2023-01-23T12:03:10.406Z,3.9
2023-01-23T12:04:14.225Z,3.8
2023-01-23T12:05:18.217Z,3.8
2023-01-23T12:06:22.543Z,3.8
2023-01-23T12:07:25.888Z,3.7
2023-01-23T12:08:29.133Z,3.7
2023-01-23T12:09:32.026Z,3.7
2023-01-23T12:10:34.830Z,3.7
2023-01-23T12:11:38.361Z,3.7
2023-01-23T12:12:41.437Z,3.7
2023-01-23T12:13:45.206Z,3.6
2023-01-23T12:14:48.696Z,3.6
2023-01-23T12:15:52.180Z,3.7
2023-01-23T12:16:55.974Z,3.7
2023-01-23T12:19:03.541Z,3.8
2023-01-23T12:20:07.030Z,3.8
2023-01-23T12:21:10.396Z,3.8
2023-01-23T12:22:14.153Z,3.8
2023-01-23T12:23:17.258Z,3.9
2023-01-23T12:24:20.906Z,3.9
2023-01-23T12:25:24.791Z,3.9
2023-01-23T12:26:27.909Z,3.9
2023-01-23T12:27:30.747Z,3.9
2023-01-23T12:28:34.209Z,3.9
2023-01-23T12:29:37.574Z,3.9
2023-01-23T12:30:40.980Z,3.9
2023-01-23T12:31:45.010Z,3.9
2023-01-23T12:32:48.570Z,3.9
2023-01-23T12:33:51.738Z,3.9
2023-01-23T12:34:55.065Z,3.8
2023-01-23T12:35:58.656Z,3.8
2023-01-23T12:37:32.465Z,3.8
2023-01-23T12:38:36.208Z,3.9
2023-01-23T12:39:39.923Z,3.8
2023-01-23T12:40:43.569Z,3.9
2023-01-23T12:41:46.934Z,3.8
2023-01-23T12:42:49.952Z,3.9
2023-01-23T12:43:56.536Z,3.9
2023-01-23T12:44:59.608Z,3.8
2023-01-23T12:46:03.064Z,3.8
2023-01-23T12:47:06.443Z,3.8
2023-01-23T12:48:10.029Z,3.9
2023-01-23T12:49:13.448Z,3.9
2023-01-23T12:50:17.770Z,3.9
2023-01-23T12:51:21.642Z,3.9
2023-01-23T12:52:25.050Z,3.9
2023-01-23T12:53:28.595Z,4
2023-01-23T12:54:32.074Z,4
2023-01-23T12:55:35.164Z,4
2023-01-23T12:56:38.625Z,4
2023-01-23T12:58:10.812Z,3.9
2023-01-23T12:59:14.353Z,3.9
2023-01-23T13:00:17.149Z,3.9
2023-01-23T13:01:20.429Z,4
2023-01-23T13:02:23.921Z,4
2023-01-23T13:03:47.930Z,4
2023-01-23T13:04:51.996Z,4
2023-01-23T13:05:55.098Z,4
2023-01-23T13:06:59.174Z,4
2023-01-23T13:08:02.146Z,4
2023-01-23T13:09:20.603Z,4
2023-01-23T13:10:25.405Z,4
2023-01-23T13:11:28.867Z,4
2023-01-23T13:12:32.375Z,4
2023-01-23T13:13:35.166Z,3.9
2023-01-23T13:15:18.853Z,3.9
2023-01-23T13:16:45.321Z,3.9
2023-01-23T13:17:48.330Z,3.8
2023-01-23T13:18:51.759Z,3.8
2023-01-23T13:19:55.456Z,3.8
2023-01-23T13:20:59.579Z,3.8
2023-01-23T13:22:09.341Z,3.9
2023-01-23T13:23:32.975Z,3.8
2023-01-23T13:24:36.997Z,3.8
2023-01-23T13:25:41.174Z,3.8
2023-01-23T13:26:43.911Z,3.8
2023-01-23T13:27:47.438Z,3.8
2023-01-23T13:28:50.431Z,3.8
2023-01-23T13:29:54.458Z,3.8
2023-01-23T13:30:58.555Z,3.8
2023-01-23T13:32:03.090Z,3.8
2023-01-23T13:33:06.295Z,3.8
2023-01-23T13:34:18.189Z,3.8
2023-01-23T13:35:23.455Z,3.9
2023-01-23T13:36:27.202Z,3.9
2023-01-23T13:37:30.772Z,3.9
2023-01-23T13:38:34.175Z,3.9
2023-01-23T13:39:46.398Z,3.9
2023-01-23T13:40:51.013Z,3.9
2023-01-23T13:41:54.633Z,3.9
2023-01-23T13:42:57.998Z,3.9
2023-01-23T13:44:01.900Z,3.9
2023-01-23T13:45:05.465Z,3.9
2023-01-23T13:46:08.893Z,3.9
2023-01-23T13:47:12.318Z,3.9
2023-01-23T13:48:15.252Z,3.9
2023-01-23T13:49:18.601Z,3.9
2023-01-23T13:50:22.328Z,3.9
2023-01-23T13:51:25.677Z,3.9
2023-01-23T13:52:28.615Z,3.9
2023-01-23T13:53:32.199Z,3.9
2023-01-23T13:54:34.635Z,3.9
2023-01-23T13:55:38.855Z,3.9
2023-01-23T13:56:42.607Z,3.9
2023-01-23T13:57:46.070Z,3.9
2023-01-23T13:58:49.686Z,3.9
2023-01-23T13:59:53.038Z,3.9
2023-01-23T14:00:56.047Z,3.9
2023-01-23T14:01:59.690Z,3.9
2023-01-23T14:03:03.253Z,3.8
2023-01-23T14:04:06.973Z,3.8
2023-01-23T14:05:09.464Z,3.8
2023-01-23T14:06:13.453Z,3.7
2023-01-23T14:07:17.184Z,3.7
2023-01-23T14:08:20.418Z,3.7
2023-01-23T14:09:24.037Z,3.7
2023-01-23T14:10:27.303Z,3.7
2023-01-23T14:11:30.809Z,3.7
2023-01-23T14:12:34.025Z,3.6
2023-01-23T14:13:36.477Z,3.6
2023-01-23T14:14:39.593Z,3.6
2023-01-23T14:15:42.658Z,3.7
2023-01-23T14:16:45.801Z,3.7
2023-01-23T14:17:49.852Z,3.7
2023-01-23T14:18:53.194Z,3.7
2023-01-23T14:19:56.486Z,3.7
2023-01-23T14:20:59.587Z,3.7
2023-01-23T14:22:02.637Z,3.7
2023-01-23T14:23:06.064Z,3.7
2023-01-23T14:24:09.615Z,3.7
2023-01-23T14:25:13.101Z,3.7
2023-01-23T14:26:15.858Z,3.7
2023-01-23T14:27:34.963Z,3.8
2023-01-23T14:28:57.433Z,3.8
2023-01-23T14:30:00.886Z,3.8
2023-01-23T14:31:04.055Z,3.8
2023-01-23T14:32:08.366Z,3.8
2023-01-23T14:33:12.209Z,3.8
2023-01-23T14:34:20.482Z,3.8
2023-01-23T14:35:25.528Z,3.8
2023-01-23T14:36:28.823Z,3.8
2023-01-23T14:37:32.232Z,3.8
2023-01-23T14:38:36.029Z,3.8
2023-01-23T14:39:53.617Z,3.8
2023-01-23T14:41:06.051Z,3.8
2023-01-23T14:42:24.845Z,3.8
2023-01-23T14:43:28.745Z,3.8
2023-01-23T14:44:32.345Z,3.8
2023-01-23T14:45:36.036Z,3.8
2023-01-23T14:46:39.863Z,3.8
2023-01-23T14:48:05.432Z,3.8
2023-01-23T14:49:11.136Z,3.8
2023-01-23T14:50:14.658Z,3.8
2023-01-23T14:51:21.597Z,3.8
2023-01-23T14:52:24.830Z,3.8
2023-01-23T14:53:28.073Z,3.8
2023-01-23T14:54:40.738Z,3.8
2023-01-23T14:55:57.928Z,3.8
2023-01-23T14:57:02.208Z,3.8
2023-01-23T14:58:05.413Z,3.8
2023-01-23T14:59:09.419Z,3.8